sensor_id;sensor_type;location;lat;lon;timestamp;P1;durP1;ratioP1;P2;durP2;ratioP2
31112;SDS011;17763;48.730;9.136;2023-03-31T00:00:57;4.82;;;2.10;;
31112;SDS011;17763;48.730;9.136;2023-03-31T00:03:24;6.45;;;2.28;;
31112;SDS011;17763;48.730;9.136;2023-03-31T00:05:57;6.20;;;2.08;;
31112;SDS011;17763;48.730;9.136;2023-03-31T00:08:25;4.13;;;1.83;;
31112;SDS011;17763;48.730;9.136;2023-03-31T00:10:56;6.38;;;1.83;;
31112;SDS011;17763;48.730;9.136;2023-03-31T00:13:24;5.40;;;2.13;;
31112;SDS011;17763;48.730;9.136;2023-03-31T00:15:54;5.00;;;2.50;;
31112;SDS011;17763;48.730;9.136;2023-03-31T00:18:25;6.43;;;2.50;;
31112;SDS011;17763;48.730;9.136;2023-03-31T00:20:51;6.80;;;2.28;;
31112;SDS011;17763;48.730;9.136;2023-03-31T00:23:18;5.50;;;1.90;;
31112;SDS011;17763;48.730;9.136;2023-03-31T00:25:55;7.82;;;2.67;;
31112;SDS011;17763;48.730;9.136;2023-03-31T00:28:20;9.70;;;2.65;;
31112;SDS011;17763;48.730;9.136;2023-03-31T00:30:46;5.70;;;1.75;;
31112;SDS011;17763;48.730;9.136;2023-03-31T00:33:13;5.60;;;2.25;;
31112;SDS011;17763;48.730;9.136;2023-03-31T00:35:38;7.97;;;2.20;;
31112;SDS011;17763;48.730;9.136;2023-03-31T00:38:04;7.93;;;1.73;;
31112;SDS011;17763;48.730;9.136;2023-03-31T00:40:35;3.13;;;1.77;;
31112;SDS011;17763;48.730;9.136;2023-03-31T00:43:01;10.52;;;2.97;;
31112;SDS011;17763;48.730;9.136;2023-03-31T00:45:30;5.50;;;2.55;;
31112;SDS011;17763;48.730;9.136;2023-03-31T00:47:59;3.35;;;1.85;;
31112;SDS011;17763;48.730;9.136;2023-03-31T00:50:34;8.88;;;2.60;;
31112;SDS011;17763;48.730;9.136;2023-03-31T00:53:11;4.60;;;2.38;;
31112;SDS011;17763;48.730;9.136;2023-03-31T00:55:46;6.20;;;2.42;;
31112;SDS011;17763;48.730;9.136;2023-03-31T00:58:16;5.53;;;2.25;;
31112;SDS011;17763;48.730;9.136;2023-03-31T01:00:46;4.70;;;2.50;;
31112;SDS011;17763;48.730;9.136;2023-03-31T01:03:14;6.68;;;2.40;;
31112;SDS011;17763;48.730;9.136;2023-03-31T01:05:53;7.55;;;2.58;;
31112;SDS011;17763;48.730;9.136;2023-03-31T01:08:23;5.78;;;2.03;;
31112;SDS011;17763;48.730;9.136;2023-03-31T01:10:52;6.90;;;2.63;;
31112;SDS011;17763;48.730;9.136;2023-03-31T01:13:20;9.55;;;2.50;;
31112;SDS011;17763;48.730;9.136;2023-03-31T01:15:47;9.77;;;2.40;;
31112;SDS011;17763;48.730;9.136;2023-03-31T01:18:13;4.63;;;2.20;;
31112;SDS011;17763;48.730;9.136;2023-03-31T01:29:12;6.93;;;2.60;;
31112;SDS011;17763;48.730;9.136;2023-03-31T01:43:09;9.02;;;3.42;;
31112;SDS011;17763;48.730;9.136;2023-03-31T01:49:08;4.82;;;2.22;;
31112;SDS011;17763;48.730;9.136;2023-03-31T01:57:23;6.50;;;2.25;;
31112;SDS011;17763;48.730;9.136;2023-03-31T02:02:29;5.70;;;2.65;;
31112;SDS011;17763;48.730;9.136;2023-03-31T02:05:11;6.90;;;2.13;;
31112;SDS011;17763;48.730;9.136;2023-03-31T02:07:48;11.05;;;3.05;;
31112;SDS011;17763;48.730;9.136;2023-03-31T02:10:19;4.97;;;2.30;;
31112;SDS011;17763;48.730;9.136;2023-03-31T02:12:47;7.15;;;2.95;;
31112;SDS011;17763;48.730;9.136;2023-03-31T02:15:17;5.10;;;2.17;;
31112;SDS011;17763;48.730;9.136;2023-03-31T02:17:46;8.57;;;2.83;;
31112;SDS011;17763;48.730;9.136;2023-03-31T02:20:17;3.47;;;2.17;;
31112;SDS011;17763;48.730;9.136;2023-03-31T02:22:46;7.00;;;2.90;;
31112;SDS011;17763;48.730;9.136;2023-03-31T02:25:18;6.15;;;2.88;;
31112;SDS011;17763;48.730;9.136;2023-03-31T02:27:55;6.97;;;2.33;;
31112;SDS011;17763;48.730;9.136;2023-03-31T02:30:29;6.03;;;2.10;;
31112;SDS011;17763;48.730;9.136;2023-03-31T02:33:03;6.72;;;2.40;;
31112;SDS011;17763;48.730;9.136;2023-03-31T02:35:29;5.30;;;2.65;;
31112;SDS011;17763;48.730;9.136;2023-03-31T02:37:55;8.38;;;3.30;;
31112;SDS011;17763;48.730;9.136;2023-03-31T02:40:22;8.55;;;2.88;;
31112;SDS011;17763;48.730;9.136;2023-03-31T02:42:51;6.60;;;2.65;;
31112;SDS011;17763;48.730;9.136;2023-03-31T02:48:23;4.85;;;2.42;;
31112;SDS011;17763;48.730;9.136;2023-03-31T02:56:10;7.22;;;2.60;;
31112;SDS011;17763;48.730;9.136;2023-03-31T03:08:25;4.50;;;2.47;;
31112;SDS011;17763;48.730;9.136;2023-03-31T03:13:48;5.18;;;2.88;;
31112;SDS011;17763;48.730;9.136;2023-03-31T03:18:54;8.63;;;3.13;;
31112;SDS011;17763;48.730;9.136;2023-03-31T03:21:21;3.97;;;2.53;;
31112;SDS011;17763;48.730;9.136;2023-03-31T03:23:47;6.18;;;2.50;;
31112;SDS011;17763;48.730;9.136;2023-03-31T03:26:13;4.85;;;3.00;;
31112;SDS011;17763;48.730;9.136;2023-03-31T03:28:38;6.47;;;2.95;;
31112;SDS011;17763;48.730;9.136;2023-03-31T03:31:04;4.00;;;2.88;;
31112;SDS011;17763;48.730;9.136;2023-03-31T03:33:30;5.20;;;2.90;;
31112;SDS011;17763;48.730;9.136;2023-03-31T03:35:55;3.85;;;2.53;;
31112;SDS011;17763;48.730;9.136;2023-03-31T03:38:21;10.38;;;2.95;;
31112;SDS011;17763;48.730;9.136;2023-03-31T03:40:51;5.15;;;2.83;;
31112;SDS011;17763;48.730;9.136;2023-03-31T03:43:17;5.22;;;2.88;;
31112;SDS011;17763;48.730;9.136;2023-03-31T03:45:47;5.13;;;2.90;;
31112;SDS011;17763;48.730;9.136;2023-03-31T03:48:15;5.18;;;2.92;;
31112;SDS011;17763;48.730;9.136;2023-03-31T03:50:41;8.10;;;2.97;;
31112;SDS011;17763;48.730;9.136;2023-03-31T03:53:09;5.55;;;2.47;;
31112;SDS011;17763;48.730;9.136;2023-03-31T03:55:35;7.07;;;2.88;;
31112;SDS011;17763;48.730;9.136;2023-03-31T03:58:00;5.82;;;3.20;;
31112;SDS011;17763;48.730;9.136;2023-03-31T04:00:26;8.43;;;3.00;;
31112;SDS011;17763;48.730;9.136;2023-03-31T04:02:54;4.68;;;2.90;;
31112;SDS011;17763;48.730;9.136;2023-03-31T04:05:22;5.65;;;3.08;;
31112;SDS011;17763;48.730;9.136;2023-03-31T04:07:48;6.05;;;3.10;;
31112;SDS011;17763;48.730;9.136;2023-03-31T04:10:14;8.25;;;3.42;;
31112;SDS011;17763;48.730;9.136;2023-03-31T04:12:40;7.10;;;3.90;;
31112;SDS011;17763;48.730;9.136;2023-03-31T04:15:05;10.30;;;4.20;;
31112;SDS011;17763;48.730;9.136;2023-03-31T04:17:32;13.95;;;4.00;;
31112;SDS011;17763;48.730;9.136;2023-03-31T04:20:01;9.90;;;4.38;;
31112;SDS011;17763;48.730;9.136;2023-03-31T04:22:30;9.18;;;4.13;;
31112;SDS011;17763;48.730;9.136;2023-03-31T04:25:06;7.32;;;3.55;;
31112;SDS011;17763;48.730;9.136;2023-03-31T04:27:34;6.88;;;3.53;;
31112;SDS011;17763;48.730;9.136;2023-03-31T04:30:01;7.10;;;4.32;;
31112;SDS011;17763;48.730;9.136;2023-03-31T04:32:27;4.60;;;3.58;;
31112;SDS011;17763;48.730;9.136;2023-03-31T04:34:56;7.18;;;4.10;;
31112;SDS011;17763;48.730;9.136;2023-03-31T04:37:28;8.52;;;3.67;;
31112;SDS011;17763;48.730;9.136;2023-03-31T04:39:59;7.72;;;3.80;;
31112;SDS011;17763;48.730;9.136;2023-03-31T04:42:32;9.07;;;3.58;;
31112;SDS011;17763;48.730;9.136;2023-03-31T04:44:58;8.00;;;3.65;;
31112;SDS011;17763;48.730;9.136;2023-03-31T04:47:23;8.73;;;3.55;;
31112;SDS011;17763;48.730;9.136;2023-03-31T04:49:49;5.13;;;3.60;;
31112;SDS011;17763;48.730;9.136;2023-03-31T04:52:15;8.18;;;3.97;;
31112;SDS011;17763;48.730;9.136;2023-03-31T04:54:41;6.43;;;4.30;;
31112;SDS011;17763;48.730;9.136;2023-03-31T04:57:06;11.43;;;4.63;;
31112;SDS011;17763;48.730;9.136;2023-03-31T04:59:32;6.10;;;4.45;;
31112;SDS011;17763;48.730;9.136;2023-03-31T05:02:00;7.53;;;4.93;;
31112;SDS011;17763;48.730;9.136;2023-03-31T05:04:26;6.60;;;4.78;;
31112;SDS011;17763;48.730;9.136;2023-03-31T05:06:51;5.93;;;5.25;;
31112;SDS011;17763;48.730;9.136;2023-03-31T05:09:17;6.82;;;4.25;;
31112;SDS011;17763;48.730;9.136;2023-03-31T05:11:44;11.40;;;4.95;;
31112;SDS011;17763;48.730;9.136;2023-03-31T05:14:10;9.98;;;4.85;;
31112;SDS011;17763;48.730;9.136;2023-03-31T05:16:35;8.70;;;4.65;;
31112;SDS011;17763;48.730;9.136;2023-03-31T05:19:01;6.40;;;4.20;;
31112;SDS011;17763;48.730;9.136;2023-03-31T05:21:27;11.52;;;4.72;;
31112;SDS011;17763;48.730;9.136;2023-03-31T05:23:54;6.47;;;4.80;;
31112;SDS011;17763;48.730;9.136;2023-03-31T05:26:23;10.73;;;4.95;;
31112;SDS011;17763;48.730;9.136;2023-03-31T05:28:55;4.78;;;4.28;;
31112;SDS011;17763;48.730;9.136;2023-03-31T05:31:23;7.95;;;4.88;;
31112;SDS011;17763;48.730;9.136;2023-03-31T05:33:53;9.75;;;5.80;;
31112;SDS011;17763;48.730;9.136;2023-03-31T05:36:21;9.32;;;5.28;;
31112;SDS011;17763;48.730;9.136;2023-03-31T05:38:51;7.93;;;4.60;;
31112;SDS011;17763;48.730;9.136;2023-03-31T05:41:16;11.25;;;4.75;;
31112;SDS011;17763;48.730;9.136;2023-03-31T05:43:42;9.20;;;4.63;;
31112;SDS011;17763;48.730;9.136;2023-03-31T05:46:08;8.07;;;4.80;;
31112;SDS011;17763;48.730;9.136;2023-03-31T05:48:34;7.80;;;5.05;;
31112;SDS011;17763;48.730;9.136;2023-03-31T05:51:03;9.30;;;5.28;;
31112;SDS011;17763;48.730;9.136;2023-03-31T05:53:30;11.18;;;6.15;;
31112;SDS011;17763;48.730;9.136;2023-03-31T05:55:59;11.32;;;6.22;;
31112;SDS011;17763;48.730;9.136;2023-03-31T05:58:28;9.52;;;6.25;;
31112;SDS011;17763;48.730;9.136;2023-03-31T06:01:06;9.63;;;5.60;;
31112;SDS011;17763;48.730;9.136;2023-03-31T06:03:38;9.32;;;5.45;;
31112;SDS011;17763;48.730;9.136;2023-03-31T06:06:05;12.82;;;6.00;;
31112;SDS011;17763;48.730;9.136;2023-03-31T06:08:33;10.55;;;5.50;;
31112;SDS011;17763;48.730;9.136;2023-03-31T06:11:00;10.15;;;5.38;;
31112;SDS011;17763;48.730;9.136;2023-03-31T06:13:32;10.10;;;5.45;;
31112;SDS011;17763;48.730;9.136;2023-03-31T06:15:59;14.00;;;5.50;;
31112;SDS011;17763;48.730;9.136;2023-03-31T06:18:29;8.55;;;5.75;;
31112;SDS011;17763;48.730;9.136;2023-03-31T06:23:22;10.88;;;5.88;;
31112;SDS011;17763;48.730;9.136;2023-03-31T06:25:49;12.73;;;6.47;;
31112;SDS011;17763;48.730;9.136;2023-03-31T06:28:15;9.40;;;5.93;;
31112;SDS011;17763;48.730;9.136;2023-03-31T06:30:41;12.65;;;6.15;;
31112;SDS011;17763;48.730;9.136;2023-03-31T06:33:07;10.20;;;5.95;;
31112;SDS011;17763;48.730;9.136;2023-03-31T06:35:36;15.38;;;6.47;;
31112;SDS011;17763;48.730;9.136;2023-03-31T06:38:02;16.05;;;6.50;;
31112;SDS011;17763;48.730;9.136;2023-03-31T06:40:28;8.77;;;6.05;;
31112;SDS011;17763;48.730;9.136;2023-03-31T06:42:54;14.57;;;6.03;;
31112;SDS011;17763;48.730;9.136;2023-03-31T06:45:20;12.57;;;5.82;;
31112;SDS011;17763;48.730;9.136;2023-03-31T06:47:45;12.55;;;6.60;;
31112;SDS011;17763;48.730;9.136;2023-03-31T06:50:11;10.65;;;6.88;;
31112;SDS011;17763;48.730;9.136;2023-03-31T06:52:37;12.80;;;7.15;;
31112;SDS011;17763;48.730;9.136;2023-03-31T06:55:05;12.00;;;6.45;;
31112;SDS011;17763;48.730;9.136;2023-03-31T06:57:31;11.63;;;7.03;;
31112;SDS011;17763;48.730;9.136;2023-03-31T07:00:00;14.27;;;6.70;;
31112;SDS011;17763;48.730;9.136;2023-03-31T07:02:27;12.15;;;6.43;;
31112;SDS011;17763;48.730;9.136;2023-03-31T07:04:53;12.90;;;6.22;;
31112;SDS011;17763;48.730;9.136;2023-03-31T07:07:18;11.20;;;6.32;;
31112;SDS011;17763;48.730;9.136;2023-03-31T07:09:44;11.82;;;6.55;;
31112;SDS011;17763;48.730;9.136;2023-03-31T07:12:10;8.20;;;5.18;;
31112;SDS011;17763;48.730;9.136;2023-03-31T07:14:35;10.15;;;5.35;;
31112;SDS011;17763;48.730;9.136;2023-03-31T07:17:01;12.43;;;5.45;;
31112;SDS011;17763;48.730;9.136;2023-03-31T07:19:27;6.22;;;5.15;;
31112;SDS011;17763;48.730;9.136;2023-03-31T07:21:53;8.85;;;4.18;;
31112;SDS011;17763;48.730;9.136;2023-03-31T07:24:20;7.07;;;4.07;;
31112;SDS011;17763;48.730;9.136;2023-03-31T07:26:46;5.18;;;4.30;;
31112;SDS011;17763;48.730;9.136;2023-03-31T07:29:12;6.55;;;3.50;;
31112;SDS011;17763;48.730;9.136;2023-03-31T07:31:38;6.70;;;3.28;;
31112;SDS011;17763;48.730;9.136;2023-03-31T07:34:03;3.30;;;3.00;;
31112;SDS011;17763;48.730;9.136;2023-03-31T07:36:29;6.07;;;3.05;;
31112;SDS011;17763;48.730;9.136;2023-03-31T07:38:55;4.18;;;2.28;;
31112;SDS011;17763;48.730;9.136;2023-03-31T07:41:22;3.75;;;2.60;;
31112;SDS011;17763;48.730;9.136;2023-03-31T07:43:48;3.30;;;2.17;;
31112;SDS011;17763;48.730;9.136;2023-03-31T07:48:44;3.08;;;1.85;;
31112;SDS011;17763;48.730;9.136;2023-03-31T07:51:11;3.08;;;1.88;;
31112;SDS011;17763;48.730;9.136;2023-03-31T07:53:38;1.40;;;1.30;;
31112;SDS011;17763;48.730;9.136;2023-03-31T07:56:08;3.15;;;1.35;;
31112;SDS011;17763;48.730;9.136;2023-03-31T07:58:34;3.00;;;1.55;;
31112;SDS011;17763;48.730;9.136;2023-03-31T08:01:00;2.33;;;1.20;;
31112;SDS011;17763;48.730;9.136;2023-03-31T08:03:28;1.83;;;1.20;;
31112;SDS011;17763;48.730;9.136;2023-03-31T08:05:56;1.92;;;1.50;;
31112;SDS011;17763;48.730;9.136;2023-03-31T08:08:22;1.13;;;1.08;;
31112;SDS011;17763;48.730;9.136;2023-03-31T08:10:47;2.70;;;1.23;;
31112;SDS011;17763;48.730;9.136;2023-03-31T08:13:13;2.65;;;1.27;;
31112;SDS011;17763;48.730;9.136;2023-03-31T08:15:39;3.90;;;1.05;;
31112;SDS011;17763;48.730;9.136;2023-03-31T08:18:04;1.20;;;1.10;;
31112;SDS011;17763;48.730;9.136;2023-03-31T08:20:30;1.60;;;1.27;;
31112;SDS011;17763;48.730;9.136;2023-03-31T08:22:56;1.08;;;0.90;;
31112;SDS011;17763;48.730;9.136;2023-03-31T08:25:24;0.75;;;0.75;;
31112;SDS011;17763;48.730;9.136;2023-03-31T08:27:50;2.35;;;1.00;;
31112;SDS011;17763;48.730;9.136;2023-03-31T08:30:16;1.23;;;1.00;;
31112;SDS011;17763;48.730;9.136;2023-03-31T08:32:45;1.73;;;0.98;;
31112;SDS011;17763;48.730;9.136;2023-03-31T08:35:11;2.00;;;1.27;;
31112;SDS011;17763;48.730;9.136;2023-03-31T08:37:37;2.63;;;1.77;;
31112;SDS011;17763;48.730;9.136;2023-03-31T08:40:04;2.28;;;1.23;;
31112;SDS011;17763;48.730;9.136;2023-03-31T08:45:03;1.73;;;1.50;;
31112;SDS011;17763;48.730;9.136;2023-03-31T08:47:47;2.47;;;1.13;;
31112;SDS011;17763;48.730;9.136;2023-03-31T08:50:19;2.28;;;1.40;;
31112;SDS011;17763;48.730;9.136;2023-03-31T08:55:51;3.50;;;1.40;;
31112;SDS011;17763;48.730;9.136;2023-03-31T09:01:14;1.90;;;1.45;;
31112;SDS011;17763;48.730;9.136;2023-03-31T09:06:40;3.78;;;2.10;;
31112;SDS011;17763;48.730;9.136;2023-03-31T09:12:34;4.67;;;1.40;;
31112;SDS011;17763;48.730;9.136;2023-03-31T09:15:23;6.32;;;1.52;;
31112;SDS011;17763;48.730;9.136;2023-03-31T09:17:52;3.38;;;1.13;;
31112;SDS011;17763;48.730;9.136;2023-03-31T09:20:23;1.95;;;1.30;;
31112;SDS011;17763;48.730;9.136;2023-03-31T09:22:57;4.03;;;1.65;;
31112;SDS011;17763;48.730;9.136;2023-03-31T09:25:33;4.00;;;1.60;;
31112;SDS011;17763;48.730;9.136;2023-03-31T09:28:02;2.00;;;1.10;;
31112;SDS011;17763;48.730;9.136;2023-03-31T09:30:33;4.93;;;1.45;;
31112;SDS011;17763;48.730;9.136;2023-03-31T09:33:11;6.05;;;1.45;;
31112;SDS011;17763;48.730;9.136;2023-03-31T09:35:40;4.95;;;1.40;;
31112;SDS011;17763;48.730;9.136;2023-03-31T09:38:08;2.70;;;1.52;;
31112;SDS011;17763;48.730;9.136;2023-03-31T09:40:35;2.55;;;1.33;;
31112;SDS011;17763;48.730;9.136;2023-03-31T09:43:06;2.88;;;1.20;;
31112;SDS011;17763;48.730;9.136;2023-03-31T09:45:53;2.38;;;1.00;;
31112;SDS011;17763;48.730;9.136;2023-03-31T09:48:20;4.07;;;1.30;;
31112;SDS011;17763;48.730;9.136;2023-03-31T09:53:31;4.38;;;1.30;;
31112;SDS011;17763;48.730;9.136;2023-03-31T09:56:05;4.05;;;1.77;;
31112;SDS011;17763;48.730;9.136;2023-03-31T09:58:39;7.20;;;1.80;;
31112;SDS011;17763;48.730;9.136;2023-03-31T10:01:09;4.15;;;1.38;;
31112;SDS011;17763;48.730;9.136;2023-03-31T10:03:50;3.95;;;1.42;;
31112;SDS011;17763;48.730;9.136;2023-03-31T10:06:18;5.10;;;1.50;;
31112;SDS011;17763;48.730;9.136;2023-03-31T10:11:18;7.50;;;1.58;;
31112;SDS011;17763;48.730;9.136;2023-03-31T10:16:12;6.03;;;1.48;;
31112;SDS011;17763;48.730;9.136;2023-03-31T10:18:48;6.60;;;1.38;;
31112;SDS011;17763;48.730;9.136;2023-03-31T10:21:24;5.80;;;1.67;;
31112;SDS011;17763;48.730;9.136;2023-03-31T10:23:51;9.07;;;1.77;;
31112;SDS011;17763;48.730;9.136;2023-03-31T10:26:21;5.00;;;1.60;;
31112;SDS011;17763;48.730;9.136;2023-03-31T10:28:50;6.68;;;1.63;;
31112;SDS011;17763;48.730;9.136;2023-03-31T10:31:23;6.60;;;1.70;;
31112;SDS011;17763;48.730;9.136;2023-03-31T10:33:51;4.75;;;1.70;;
31112;SDS011;17763;48.730;9.136;2023-03-31T10:38:51;7.53;;;1.55;;
31112;SDS011;17763;48.730;9.136;2023-03-31T10:41:22;8.10;;;1.80;;
31112;SDS011;17763;48.730;9.136;2023-03-31T10:43:54;6.38;;;1.90;;
31112;SDS011;17763;48.730;9.136;2023-03-31T10:46:38;5.82;;;1.80;;
31112;SDS011;17763;48.730;9.136;2023-03-31T10:51:48;6.03;;;1.50;;
31112;SDS011;17763;48.730;9.136;2023-03-31T10:54:16;6.95;;;1.83;;
31112;SDS011;17763;48.730;9.136;2023-03-31T10:56:43;4.07;;;1.45;;
31112;SDS011;17763;48.730;9.136;2023-03-31T11:10:29;6.32;;;2.05;;
31112;SDS011;17763;48.730;9.136;2023-03-31T11:16:18;10.00;;;1.92;;
31112;SDS011;17763;48.730;9.136;2023-03-31T11:18:33;9.23;;;2.30;;
31112;SDS011;17763;48.730;9.136;2023-03-31T11:21:16;7.78;;;1.73;;
31112;SDS011;17763;48.730;9.136;2023-03-31T11:27:21;11.38;;;1.42;;
31112;SDS011;17763;48.730;9.136;2023-03-31T11:45:37;0.70;;;0.43;;
31112;SDS011;17763;48.730;9.136;2023-03-31T11:48:15;1.95;;;0.70;;
31112;SDS011;17763;48.730;9.136;2023-03-31T11:51:03;1.77;;;0.57;;
31112;SDS011;17763;48.730;9.136;2023-03-31T11:53:36;1.35;;;0.85;;
31112;SDS011;17763;48.730;9.136;2023-03-31T11:56:03;2.28;;;0.82;;
31112;SDS011;17763;48.730;9.136;2023-03-31T11:58:36;0.40;;;0.40;;
31112;SDS011;17763;48.730;9.136;2023-03-31T12:01:27;1.30;;;0.55;;
31112;SDS011;17763;48.730;9.136;2023-03-31T12:04:19;4.18;;;0.70;;
31112;SDS011;17763;48.730;9.136;2023-03-31T12:06:59;1.38;;;0.57;;
31112;SDS011;17763;48.730;9.136;2023-03-31T12:09:56;1.92;;;0.43;;
31112;SDS011;17763;48.730;9.136;2023-03-31T12:12:31;0.52;;;0.47;;
31112;SDS011;17763;48.730;9.136;2023-03-31T12:17:42;0.30;;;0.30;;
31112;SDS011;17763;48.730;9.136;2023-03-31T12:20:25;0.90;;;0.38;;
31112;SDS011;17763;48.730;9.136;2023-03-31T12:23:09;0.98;;;0.50;;
31112;SDS011;17763;48.730;9.136;2023-03-31T12:25:41;3.35;;;0.70;;
31112;SDS011;17763;48.730;9.136;2023-03-31T12:28:17;1.90;;;0.55;;
31112;SDS011;17763;48.730;9.136;2023-03-31T12:30:44;1.48;;;0.50;;
31112;SDS011;17763;48.730;9.136;2023-03-31T12:33:23;1.20;;;0.60;;
31112;SDS011;17763;48.730;9.136;2023-03-31T12:55:53;1.17;;;0.80;;
31112;SDS011;17763;48.730;9.136;2023-03-31T13:08:59;1.85;;;0.80;;
31112;SDS011;17763;48.730;9.136;2023-03-31T13:11:51;4.10;;;1.10;;
31112;SDS011;17763;48.730;9.136;2023-03-31T13:14:31;4.75;;;1.50;;
31112;SDS011;17763;48.730;9.136;2023-03-31T13:19:55;10.33;;;2.37;;
31112;SDS011;17763;48.730;9.136;2023-03-31T13:22:40;5.22;;;1.70;;
31112;SDS011;17763;48.730;9.136;2023-03-31T13:27:53;5.30;;;1.75;;
31112;SDS011;17763;48.730;9.136;2023-03-31T13:33:04;3.35;;;0.95;;
31112;SDS011;17763;48.730;9.136;2023-03-31T13:35:38;2.45;;;1.63;;
31112;SDS011;17763;48.730;9.136;2023-03-31T13:52:15;0.40;;;0.40;;
31112;SDS011;17763;48.730;9.136;2023-03-31T13:57:30;1.08;;;0.60;;
31112;SDS011;17763;48.730;9.136;2023-03-31T14:00:34;0.45;;;0.32;;
31112;SDS011;17763;48.730;9.136;2023-03-31T14:03:28;0.60;;;0.60;;
31112;SDS011;17763;48.730;9.136;2023-03-31T14:11:29;1.45;;;0.40;;
31112;SDS011;17763;48.730;9.136;2023-03-31T14:14:12;0.65;;;0.55;;
31112;SDS011;17763;48.730;9.136;2023-03-31T14:16:40;1.33;;;0.50;;
31112;SDS011;17763;48.730;9.136;2023-03-31T14:34:55;2.35;;;0.77;;
31112;SDS011;17763;48.730;9.136;2023-03-31T14:37:28;0.73;;;0.47;;
31112;SDS011;17763;48.730;9.136;2023-03-31T14:39:55;0.55;;;0.40;;
31112;SDS011;17763;48.730;9.136;2023-03-31T14:42:28;0.60;;;0.60;;
31112;SDS011;17763;48.730;9.136;2023-03-31T14:45:02;0.60;;;0.60;;
31112;SDS011;17763;48.730;9.136;2023-03-31T14:47:33;3.42;;;1.33;;
31112;SDS011;17763;48.730;9.136;2023-03-31T14:52:28;2.50;;;0.73;;
31112;SDS011;17763;48.730;9.136;2023-03-31T14:54:57;1.90;;;0.63;;
31112;SDS011;17763;48.730;9.136;2023-03-31T14:57:34;0.40;;;0.40;;
31112;SDS011;17763;48.730;9.136;2023-03-31T15:00:03;0.88;;;0.40;;
31112;SDS011;17763;48.730;9.136;2023-03-31T15:02:33;2.17;;;0.55;;
31112;SDS011;17763;48.730;9.136;2023-03-31T15:05:04;3.13;;;0.98;;
31112;SDS011;17763;48.730;9.136;2023-03-31T15:07:34;0.90;;;0.57;;
31112;SDS011;17763;48.730;9.136;2023-03-31T15:10:00;1.92;;;1.00;;
31112;SDS011;17763;48.730;9.136;2023-03-31T15:12:31;2.80;;;0.70;;
31112;SDS011;17763;48.730;9.136;2023-03-31T15:15:03;1.40;;;0.70;;
31112;SDS011;17763;48.730;9.136;2023-03-31T15:17:34;1.70;;;0.60;;
31112;SDS011;17763;48.730;9.136;2023-03-31T15:20:25;1.17;;;0.60;;
31112;SDS011;17763;48.730;9.136;2023-03-31T15:22:56;4.43;;;1.30;;
31112;SDS011;17763;48.730;9.136;2023-03-31T15:25:33;1.83;;;0.82;;
31112;SDS011;17763;48.730;9.136;2023-03-31T15:28:09;3.67;;;0.88;;
31112;SDS011;17763;48.730;9.136;2023-03-31T15:30:40;0.82;;;0.57;;
31112;SDS011;17763;48.730;9.136;2023-03-31T15:33:07;2.83;;;0.93;;
31112;SDS011;17763;48.730;9.136;2023-03-31T15:35:40;3.10;;;0.60;;
31112;SDS011;17763;48.730;9.136;2023-03-31T15:38:08;1.83;;;0.70;;
31112;SDS011;17763;48.730;9.136;2023-03-31T15:40:40;2.72;;;0.63;;
31112;SDS011;17763;48.730;9.136;2023-03-31T15:43:16;3.17;;;0.70;;
31112;SDS011;17763;48.730;9.136;2023-03-31T15:45:47;1.27;;;0.70;;
31112;SDS011;17763;48.730;9.136;2023-03-31T15:53:55;1.70;;;0.70;;
31112;SDS011;17763;48.730;9.136;2023-03-31T15:59:05;3.95;;;0.85;;
31112;SDS011;17763;48.730;9.136;2023-03-31T16:01:49;1.13;;;0.75;;
31112;SDS011;17763;48.730;9.136;2023-03-31T16:04:20;2.30;;;0.82;;
31112;SDS011;17763;48.730;9.136;2023-03-31T16:10:16;1.88;;;0.70;;
31112;SDS011;17763;48.730;9.136;2023-03-31T16:12:35;2.83;;;1.20;;
31112;SDS011;17763;48.730;9.136;2023-03-31T16:15:08;3.08;;;1.20;;
31112;SDS011;17763;48.730;9.136;2023-03-31T16:20:08;1.77;;;0.65;;
31112;SDS011;17763;48.730;9.136;2023-03-31T16:22:43;2.00;;;0.95;;
31112;SDS011;17763;48.730;9.136;2023-03-31T16:25:13;3.15;;;1.00;;
31112;SDS011;17763;48.730;9.136;2023-03-31T16:27:49;4.85;;;1.00;;
31112;SDS011;17763;48.730;9.136;2023-03-31T16:30:19;2.30;;;0.90;;
31112;SDS011;17763;48.730;9.136;2023-03-31T16:33:00;2.03;;;0.90;;
31112;SDS011;17763;48.730;9.136;2023-03-31T16:35:30;3.53;;;0.90;;
31112;SDS011;17763;48.730;9.136;2023-03-31T16:38:01;1.90;;;0.60;;
31112;SDS011;17763;48.730;9.136;2023-03-31T16:40:28;1.92;;;0.70;;
31112;SDS011;17763;48.730;9.136;2023-03-31T16:45:45;2.28;;;0.80;;
31112;SDS011;17763;48.730;9.136;2023-03-31T16:48:15;0.95;;;0.50;;
31112;SDS011;17763;48.730;9.136;2023-03-31T16:50:47;2.60;;;0.88;;
31112;SDS011;17763;48.730;9.136;2023-03-31T16:53:14;1.58;;;0.57;;
31112;SDS011;17763;48.730;9.136;2023-03-31T16:55:42;0.90;;;0.68;;
31112;SDS011;17763;48.730;9.136;2023-03-31T16:58:08;2.55;;;0.70;;
31112;SDS011;17763;48.730;9.136;2023-03-31T17:00:37;4.13;;;0.75;;
31112;SDS011;17763;48.730;9.136;2023-03-31T17:03:04;0.80;;;0.50;;
31112;SDS011;17763;48.730;9.136;2023-03-31T17:05:32;1.25;;;0.82;;
31112;SDS011;17763;48.730;9.136;2023-03-31T17:08:06;1.75;;;0.75;;
31112;SDS011;17763;48.730;9.136;2023-03-31T17:10:33;2.60;;;0.85;;
31112;SDS011;17763;48.730;9.136;2023-03-31T17:13:04;2.13;;;0.85;;
31112;SDS011;17763;48.730;9.136;2023-03-31T17:15:30;1.83;;;0.75;;
31112;SDS011;17763;48.730;9.136;2023-03-31T17:17:56;2.95;;;0.70;;
31112;SDS011;17763;48.730;9.136;2023-03-31T17:20:23;3.40;;;0.77;;
31112;SDS011;17763;48.730;9.136;2023-03-31T17:22:52;2.58;;;1.00;;
31112;SDS011;17763;48.730;9.136;2023-03-31T17:25:20;1.30;;;0.98;;
31112;SDS011;17763;48.730;9.136;2023-03-31T17:27:46;1.98;;;1.00;;
31112;SDS011;17763;48.730;9.136;2023-03-31T17:30:12;2.10;;;0.70;;
31112;SDS011;17763;48.730;9.136;2023-03-31T17:32:38;4.07;;;0.93;;
31112;SDS011;17763;48.730;9.136;2023-03-31T17:35:05;2.83;;;0.88;;
31112;SDS011;17763;48.730;9.136;2023-03-31T17:37:31;1.55;;;0.80;;
31112;SDS011;17763;48.730;9.136;2023-03-31T17:39:58;1.33;;;0.82;;
31112;SDS011;17763;48.730;9.136;2023-03-31T17:42:26;1.83;;;1.00;;
31112;SDS011;17763;48.730;9.136;2023-03-31T17:44:52;2.25;;;0.85;;
31112;SDS011;17763;48.730;9.136;2023-03-31T17:47:18;3.17;;;0.90;;
31112;SDS011;17763;48.730;9.136;2023-03-31T17:49:47;1.08;;;0.68;;
31112;SDS011;17763;48.730;9.136;2023-03-31T17:52:13;2.00;;;0.63;;
31112;SDS011;17763;48.730;9.136;2023-03-31T17:54:41;1.70;;;0.90;;
31112;SDS011;17763;48.730;9.136;2023-03-31T17:57:07;2.72;;;1.05;;
31112;SDS011;17763;48.730;9.136;2023-03-31T17:59:33;3.65;;;0.98;;
31112;SDS011;17763;48.730;9.136;2023-03-31T18:01:59;3.35;;;1.30;;
31112;SDS011;17763;48.730;9.136;2023-03-31T18:04:25;4.07;;;1.20;;
31112;SDS011;17763;48.730;9.136;2023-03-31T18:06:51;3.42;;;1.00;;
31112;SDS011;17763;48.730;9.136;2023-03-31T18:09:17;2.90;;;1.10;;
31112;SDS011;17763;48.730;9.136;2023-03-31T18:11:42;2.53;;;0.80;;
31112;SDS011;17763;48.730;9.136;2023-03-31T18:14:08;3.65;;;1.13;;
31112;SDS011;17763;48.730;9.136;2023-03-31T18:16:34;1.98;;;1.40;;
31112;SDS011;17763;48.730;9.136;2023-03-31T18:19:00;3.03;;;1.08;;
31112;SDS011;17763;48.730;9.136;2023-03-31T18:21:26;2.88;;;1.25;;
31112;SDS011;17763;48.730;9.136;2023-03-31T18:23:52;3.45;;;2.05;;
31112;SDS011;17763;48.730;9.136;2023-03-31T18:26:23;2.63;;;1.08;;
31112;SDS011;17763;48.730;9.136;2023-03-31T18:28:50;2.80;;;2.00;;
31112;SDS011;17763;48.730;9.136;2023-03-31T18:31:16;3.15;;;1.38;;
31112;SDS011;17763;48.730;9.136;2023-03-31T18:33:42;2.40;;;1.08;;
31112;SDS011;17763;48.730;9.136;2023-03-31T18:36:08;6.53;;;1.95;;
31112;SDS011;17763;48.730;9.136;2023-03-31T18:38:44;4.10;;;1.60;;
31112;SDS011;17763;48.730;9.136;2023-03-31T18:41:11;3.63;;;1.08;;